SAS2950 LEZL-ESSA
Flight info
| Callsign | SAS2950 |
|---|---|
| Flight time | N/A |
| Altitude | 36000 |
| Route | HIJ DCT PARKA N858 ABRIX DCT CNA DCT ADABI DCT BOKNO UN858 VANAD UN874 PIWIZ DCT VADOM UN874 ARSAF DCT EGOZE/N0445F380 DCT CMB DCT VEKIN DCT ADUTO/N0442F370 DCT VICOT DCT GOTEX DCT DETSO N873 ARS T317 ELTOK |
| Aircraft | A320/M-SDE3FGHIJ1RWXYZ/ALB1 |
Departure
| Time | 2026-04-14 10:58 |
|---|---|
| Airport | Seville Airport (LEZL) |
Arrival
| Time | N/A |
|---|---|
| Airport | Stockholm-Arlanda Airport (ESSA) |
| Time | Latitude | Longitude | Altitude | Speed | Heading |
|---|---|---|---|---|---|
| 2026-04-14 10:38 | 37.42245 | -5.89914 | 94 ft | 0 kts | 314° |
| 2026-04-14 10:46 | 37.42234 | -5.89899 | 93 ft | 4 kts | 311° |
| 2026-04-14 10:46 | 37.42215 | -5.89875 | 93 ft | 4 kts | 333° |
| 2026-04-14 10:47 | 37.42194 | -5.89863 | 93 ft | 4 kts | 296° |
| 2026-04-14 10:47 | 37.42197 | -5.89842 | 93 ft | 2 kts | 225° |
| 2026-04-14 10:47 | 37.42210 | -5.89826 | 93 ft | 1 kts | 225° |
| 2026-04-14 10:47 | 37.42210 | -5.89825 | 93 ft | 0 kts | 225° |
| 2026-04-14 10:49 | 37.42204 | -5.89833 | 93 ft | 2 kts | 225° |
| 2026-04-14 10:50 | 37.42178 | -5.89866 | 93 ft | 9 kts | 225° |
| 2026-04-14 10:50 | 37.42129 | -5.89927 | 94 ft | 11 kts | 225° |
| 2026-04-14 10:50 | 37.42071 | -5.89999 | 95 ft | 12 kts | 226° |
| 2026-04-14 10:50 | 37.42011 | -5.90083 | 95 ft | 13 kts | 228° |
| 2026-04-14 10:51 | 37.41979 | -5.90192 | 95 ft | 14 kts | 266° |
| 2026-04-14 10:51 | 37.41979 | -5.90327 | 95 ft | 17 kts | 270° |
| 2026-04-14 10:51 | 37.41979 | -5.90483 | 93 ft | 19 kts | 270° |
| 2026-04-14 10:51 | 37.41978 | -5.90661 | 93 ft | 22 kts | 269° |
| 2026-04-14 10:52 | 37.41978 | -5.90855 | 91 ft | 13 kts | 269° |
| 2026-04-14 10:52 | 37.41955 | -5.90974 | 90 ft | 16 kts | 239° |
| 2026-04-14 10:52 | 37.41923 | -5.91042 | 89 ft | 0 kts | 240° |
| 2026-04-14 10:55 | 37.41916 | -5.91057 | 90 ft | 5 kts | 240° |
| 2026-04-14 10:55 | 37.41893 | -5.91108 | 89 ft | 0 kts | 240° |
| 2026-04-14 10:56 | 37.41872 | -5.91151 | 90 ft | 9 kts | 237° |
| 2026-04-14 10:56 | 37.41818 | -5.91188 | 89 ft | 10 kts | 169° |
| 2026-04-14 10:57 | 37.41788 | -5.91122 | 91 ft | 0 kts | 90° |
| 2026-04-14 10:57 | 37.41790 | -5.90902 | 93 ft | 60 kts | 89° |
| 2026-04-14 10:58 | 37.41793 | -5.90113 | 98 ft | 118 kts | 89° |
| 2026-04-14 10:58 | 37.41793 | -5.88885 | 120 ft | 159 kts | 88° |
| 2026-04-14 10:58 | 37.41773 | -5.87506 | 696 ft | 156 kts | 90° |
| 2026-04-14 10:58 | 37.41746 | -5.86145 | 1297 ft | 156 kts | 89° |
| 2026-04-14 10:59 | 37.41718 | -5.84718 | 1578 ft | 174 kts | 89° |
| 2026-04-14 10:59 | 37.41689 | -5.83103 | 1835 ft | 196 kts | 88° |
| 2026-04-14 10:59 | 37.41785 | -5.81298 | 2113 ft | 218 kts | 73° |
| 2026-04-14 10:59 | 37.42187 | -5.79385 | 2516 ft | 240 kts | 72° |
| 2026-04-14 11:00 | 37.42666 | -5.77329 | 3260 ft | 247 kts | 61° |
| 2026-04-14 11:00 | 37.43741 | -5.75678 | 4057 ft | 247 kts | 33° |
| 2026-04-14 11:00 | 37.45299 | -5.74735 | 4893 ft | 251 kts | 22° |
| 2026-04-14 11:00 | 37.46910 | -5.73812 | 5698 ft | 257 kts | 25° |
| 2026-04-14 11:01 | 37.48533 | -5.72827 | 6513 ft | 261 kts | 25° |
| 2026-04-14 11:01 | 37.50177 | -5.71813 | 7319 ft | 264 kts | 25° |
| 2026-04-14 11:01 | 37.51834 | -5.70791 | 8159 ft | 266 kts | 25° |
| 2026-04-14 11:01 | 37.53499 | -5.69768 | 9020 ft | 267 kts | 25° |
| 2026-04-14 11:02 | 37.55175 | -5.68741 | 9842 ft | 269 kts | 24° |
| 2026-04-14 11:02 | 37.56869 | -5.67706 | 10554 ft | 274 kts | 24° |
| 2026-04-14 11:02 | 37.58657 | -5.66621 | 10775 ft | 297 kts | 24° |
| 2026-04-14 11:02 | 37.60571 | -5.65458 | 11116 ft | 311 kts | 24° |
| 2026-04-14 11:03 | 37.62537 | -5.64261 | 11714 ft | 316 kts | 24° |
| 2026-04-14 11:03 | 37.64535 | -5.63046 | 12358 ft | 320 kts | 24° |
| 2026-04-14 11:03 | 37.66553 | -5.61821 | 13005 ft | 324 kts | 24° |
| 2026-04-14 11:03 | 37.68595 | -5.60585 | 13657 ft | 327 kts | 24° |
| 2026-04-14 11:04 | 37.70660 | -5.59335 | 14272 ft | 331 kts | 24° |
| 2026-04-14 11:04 | 37.72743 | -5.58071 | 14864 ft | 334 kts | 24° |
| 2026-04-14 11:04 | 37.74845 | -5.56793 | 15454 ft | 337 kts | 23° |
| 2026-04-14 11:04 | 37.76964 | -5.55503 | 16014 ft | 340 kts | 23° |
| 2026-04-14 11:05 | 37.79102 | -5.54200 | 16564 ft | 343 kts | 23° |
| 2026-04-14 11:05 | 37.81255 | -5.52884 | 17144 ft | 345 kts | 23° |
| 2026-04-14 11:05 | 37.83399 | -5.51573 | 17709 ft | 348 kts | 23° |
| 2026-04-14 11:05 | 37.85590 | -5.50232 | 18266 ft | 352 kts | 23° |
| 2026-04-14 11:06 | 37.87805 | -5.48874 | 18802 ft | 354 kts | 23° |
| 2026-04-14 11:06 | 37.90028 | -5.47508 | 19326 ft | 357 kts | 23° |
| 2026-04-14 11:06 | 37.92273 | -5.46130 | 19834 ft | 360 kts | 23° |
| 2026-04-14 11:06 | 37.94538 | -5.44745 | 20365 ft | 363 kts | 22° |
| 2026-04-14 11:07 | 37.96822 | -5.43352 | 20891 ft | 365 kts | 22° |
| 2026-04-14 11:07 | 37.99123 | -5.41947 | 21382 ft | 369 kts | 22° |
| 2026-04-14 11:07 | 38.01443 | -5.40525 | 21884 ft | 372 kts | 23° |
| 2026-04-14 11:07 | 38.03777 | -5.39090 | 22382 ft | 374 kts | 23° |
| 2026-04-14 11:08 | 38.06131 | -5.37641 | 22848 ft | 378 kts | 23° |
| 2026-04-14 11:08 | 38.08506 | -5.36178 | 23329 ft | 381 kts | 22° |
| 2026-04-14 11:08 | 38.10899 | -5.34701 | 23794 ft | 384 kts | 22° |
| 2026-04-14 11:08 | 38.13308 | -5.33216 | 24198 ft | 386 kts | 22° |
| 2026-04-14 11:09 | 38.15725 | -5.31726 | 24657 ft | 386 kts | 22° |
| 2026-04-14 11:09 | 38.18142 | -5.30236 | 25092 ft | 387 kts | 22° |
| 2026-04-14 11:09 | 38.20569 | -5.28739 | 25497 ft | 388 kts | 22° |
| 2026-04-14 11:10 | 38.25453 | -5.25728 | 26265 ft | 391 kts | 22° |
| 2026-04-14 11:10 | 38.27905 | -5.24211 | 26662 ft | 393 kts | 22° |
| 2026-04-14 11:10 | 38.30364 | -5.22686 | 27034 ft | 394 kts | 22° |
| 2026-04-14 11:10 | 38.32832 | -5.21154 | 27397 ft | 396 kts | 22° |
| 2026-04-14 11:11 | 38.35314 | -5.19612 | 27762 ft | 397 kts | 22° |
| 2026-04-14 11:11 | 38.37801 | -5.18070 | 28130 ft | 399 kts | 22° |
| 2026-04-14 11:11 | 38.40299 | -5.16522 | 28492 ft | 400 kts | 22° |
| 2026-04-14 11:11 | 38.42809 | -5.14967 | 28849 ft | 402 kts | 22° |
| 2026-04-14 11:12 | 38.45332 | -5.13400 | 29208 ft | 404 kts | 22° |
| 2026-04-14 11:12 | 38.47871 | -5.11861 | 29544 ft | 404 kts | 18° |
| 2026-04-14 11:12 | 38.50535 | -5.10785 | 29891 ft | 401 kts | 9° |
| 2026-04-14 11:12 | 38.53294 | -5.10335 | 30250 ft | 399 kts | 360° |
| 2026-04-14 11:13 | 38.56055 | -5.10486 | 30672 ft | 396 kts | 354° |
| 2026-04-14 11:13 | 38.58796 | -5.10771 | 31095 ft | 394 kts | 354° |
| 2026-04-14 11:13 | 38.61493 | -5.11050 | 31516 ft | 393 kts | 354° |
| 2026-04-14 11:13 | 38.64208 | -5.11328 | 31934 ft | 391 kts | 354° |
| 2026-04-14 11:14 | 38.66912 | -5.11605 | 32359 ft | 389 kts | 354° |
| 2026-04-14 11:14 | 38.69604 | -5.11880 | 32793 ft | 387 kts | 354° |
| 2026-04-14 11:14 | 38.72287 | -5.12154 | 33236 ft | 385 kts | 355° |
| 2026-04-14 11:14 | 38.74954 | -5.12428 | 33667 ft | 384 kts | 355° |
| 2026-04-14 11:15 | 38.77609 | -5.12699 | 34114 ft | 382 kts | 355° |
| 2026-04-14 11:15 | 38.80252 | -5.12970 | 34493 ft | 380 kts | 355° |
| 2026-04-14 11:15 | 38.82883 | -5.13240 | 34839 ft | 379 kts | 354° |
| 2026-04-14 11:15 | 38.85506 | -5.13511 | 35198 ft | 377 kts | 354° |
| 2026-04-14 11:16 | 38.88111 | -5.13780 | 35537 ft | 375 kts | 354° |
| 2026-04-14 11:16 | 38.90701 | -5.14048 | 35878 ft | 373 kts | 354° |
| 2026-04-14 11:16 | 38.93278 | -5.14311 | 36173 ft | 372 kts | 354° |
| 2026-04-14 11:16 | 38.95865 | -5.14485 | 36243 ft | 374 kts | 359° |
| 2026-04-14 11:17 | 39.01041 | -5.13557 | 36245 ft | 381 kts | 15° |
| 2026-04-14 11:17 | 39.03479 | -5.12152 | 36245 ft | 389 kts | 26° |
| 2026-04-14 11:17 | 39.05778 | -5.10291 | 36245 ft | 391 kts | 27° |
| 2026-04-14 11:18 | 39.10357 | -5.06488 | 36242 ft | 391 kts | 27° |
| 2026-04-14 11:18 | 39.14925 | -5.02672 | 36240 ft | 392 kts | 27° |
| 2026-04-14 11:19 | 39.19510 | -4.98859 | 36238 ft | 392 kts | 27° |
| 2026-04-14 11:19 | 39.24099 | -4.95054 | 36270 ft | 392 kts | 27° |
| 2026-04-14 11:20 | 39.28663 | -4.91272 | 36265 ft | 392 kts | 27° |
| 2026-04-14 11:20 | 39.33244 | -4.87458 | 36258 ft | 392 kts | 27° |
| 2026-04-14 11:21 | 39.37815 | -4.83634 | 36253 ft | 392 kts | 27° |
| 2026-04-14 11:21 | 39.42390 | -4.79807 | 36252 ft | 391 kts | 27° |
| 2026-04-14 11:22 | 39.46960 | -4.75984 | 36252 ft | 391 kts | 27° |
| 2026-04-14 11:22 | 39.51530 | -4.72153 | 36250 ft | 391 kts | 27° |
| 2026-04-14 11:23 | 39.56098 | -4.68315 | 36250 ft | 392 kts | 27° |
| 2026-04-14 11:23 | 39.60672 | -4.64466 | 36247 ft | 392 kts | 27° |
| 2026-04-14 11:24 | 39.65247 | -4.60621 | 36246 ft | 392 kts | 27° |
| 2026-04-14 11:24 | 39.69820 | -4.56763 | 36277 ft | 391 kts | 27° |
| 2026-04-14 11:25 | 39.74356 | -4.52929 | 36249 ft | 388 kts | 27° |
| 2026-04-14 11:25 | 39.78877 | -4.49106 | 36246 ft | 388 kts | 27° |
| 2026-04-14 11:26 | 39.83398 | -4.45264 | 36248 ft | 388 kts | 27° |
| 2026-04-14 11:26 | 39.87887 | -4.41450 | 36240 ft | 388 kts | 27° |
| 2026-04-14 11:27 | 39.92412 | -4.37609 | 36240 ft | 388 kts | 27° |
| 2026-04-14 11:27 | 39.96955 | -4.33800 | 36238 ft | 386 kts | 23° |
| 2026-04-14 11:28 | 40.01772 | -4.30819 | 36234 ft | 383 kts | 20° |
| 2026-04-14 11:28 | 40.06609 | -4.27869 | 36231 ft | 384 kts | 20° |
| 2026-04-14 11:29 | 40.11439 | -4.24914 | 36230 ft | 383 kts | 20° |
| 2026-04-14 11:29 | 40.16274 | -4.21962 | 36227 ft | 384 kts | 20° |
| 2026-04-14 11:30 | 40.21113 | -4.19008 | 36227 ft | 384 kts | 20° |
| 2026-04-14 11:30 | 40.25952 | -4.16042 | 36226 ft | 384 kts | 20° |
| 2026-04-14 11:31 | 40.30795 | -4.13063 | 36225 ft | 384 kts | 20° |
| 2026-04-14 11:31 | 40.35637 | -4.10088 | 36221 ft | 384 kts | 20° |
| 2026-04-14 11:32 | 40.40477 | -4.07105 | 36242 ft | 384 kts | 20° |
| 2026-04-14 11:32 | 40.45317 | -4.04116 | 36239 ft | 384 kts | 20° |
| 2026-04-14 11:33 | 40.50143 | -4.01129 | 36232 ft | 383 kts | 20° |
| 2026-04-14 11:34 | 40.57370 | -3.96650 | 36225 ft | 383 kts | 20° |
| 2026-04-14 11:34 | 40.62191 | -3.93664 | 36230 ft | 383 kts | 20° |
| 2026-04-14 11:35 | 40.67008 | -3.90674 | 36224 ft | 383 kts | 20° |
| 2026-04-14 11:35 | 40.71829 | -3.87673 | 36229 ft | 383 kts | 20° |
| 2026-04-14 11:36 | 40.76647 | -3.84667 | 36223 ft | 383 kts | 20° |
| 2026-04-14 11:36 | 40.81471 | -3.81655 | 36251 ft | 383 kts | 20° |
| 2026-04-14 11:37 | 40.86284 | -3.78643 | 36261 ft | 383 kts | 20° |
| 2026-04-14 11:37 | 40.91101 | -3.75633 | 36255 ft | 382 kts | 20° |
| 2026-04-14 11:38 | 40.95907 | -3.72622 | 36253 ft | 382 kts | 20° |
| 2026-04-14 11:38 | 41.00711 | -3.69595 | 36259 ft | 382 kts | 20° |
| 2026-04-14 11:39 | 41.05480 | -3.66595 | 36256 ft | 382 kts | 20° |
| 2026-04-14 11:39 | 41.10282 | -3.63566 | 36257 ft | 383 kts | 20° |
| 2026-04-14 11:40 | 41.15092 | -3.60524 | 36257 ft | 383 kts | 19° |
| 2026-04-14 11:40 | 41.19967 | -3.57713 | 36259 ft | 381 kts | 17° |
| 2026-04-14 11:41 | 41.24895 | -3.55113 | 36258 ft | 381 kts | 16° |
| 2026-04-14 11:41 | 41.29820 | -3.52491 | 36246 ft | 381 kts | 17° |
| 2026-04-14 11:42 | 41.34740 | -3.49812 | 36236 ft | 383 kts | 17° |
| 2026-04-14 11:42 | 41.39667 | -3.47101 | 36235 ft | 384 kts | 17° |
| 2026-04-14 11:43 | 41.44607 | -3.44383 | 36235 ft | 384 kts | 17° |
| 2026-04-14 11:43 | 41.49509 | -3.41680 | 36265 ft | 384 kts | 18° |
| 2026-04-14 11:44 | 41.54478 | -3.38945 | 36266 ft | 383 kts | 17° |
| 2026-04-14 11:44 | 41.59373 | -3.36255 | 36255 ft | 383 kts | 17° |
| 2026-04-14 11:45 | 41.64296 | -3.33538 | 36244 ft | 383 kts | 17° |
| 2026-04-14 11:45 | 41.69222 | -3.30810 | 36242 ft | 383 kts | 18° |
| 2026-04-14 11:46 | 41.74140 | -3.28071 | 36242 ft | 383 kts | 17° |
| 2026-04-14 11:46 | 41.79058 | -3.25334 | 36237 ft | 383 kts | 17° |
| 2026-04-14 11:47 | 41.83980 | -3.22599 | 36232 ft | 383 kts | 17° |
| 2026-04-14 11:47 | 41.88900 | -3.19860 | 36225 ft | 383 kts | 17° |
| 2026-04-14 11:48 | 41.93821 | -3.17118 | 36225 ft | 383 kts | 18° |
| 2026-04-14 11:48 | 41.97916 | -3.14829 | 36228 ft | 383 kts | 18° |
| 2026-04-14 11:49 | 42.02838 | -3.12076 | 36225 ft | 383 kts | 18° |
| 2026-04-14 11:49 | 42.07764 | -3.09310 | 36222 ft | 384 kts | 18° |
| 2026-04-14 11:50 | 42.12690 | -3.06538 | 36222 ft | 384 kts | 18° |
| 2026-04-14 11:50 | 42.17614 | -3.03764 | 36229 ft | 382 kts | 18° |
| 2026-04-14 11:51 | 42.24953 | -2.99627 | 36224 ft | 381 kts | 18° |
| 2026-04-14 11:51 | 42.29852 | -2.96863 | 36223 ft | 382 kts | 18° |
| 2026-04-14 11:52 | 42.34744 | -2.94096 | 36219 ft | 381 kts | 18° |
| 2026-04-14 11:52 | 42.39633 | -2.91322 | 36231 ft | 381 kts | 18° |
| 2026-04-14 11:53 | 42.44522 | -2.88536 | 36225 ft | 381 kts | 18° |
| 2026-04-14 11:53 | 42.49207 | -2.85159 | 36224 ft | 385 kts | 23° |
| 2026-04-14 11:54 | 42.53895 | -2.81622 | 36224 ft | 386 kts | 23° |
| 2026-04-14 11:54 | 42.58581 | -2.78081 | 36224 ft | 386 kts | 23° |
| 2026-04-14 11:55 | 42.63267 | -2.74532 | 36224 ft | 386 kts | 23° |
| 2026-04-14 11:55 | 42.67961 | -2.70981 | 36223 ft | 386 kts | 23° |
| 2026-04-14 11:56 | 42.72650 | -2.67425 | 36232 ft | 386 kts | 23° |
| 2026-04-14 11:56 | 42.77337 | -2.63859 | 36249 ft | 385 kts | 23° |
| 2026-04-14 11:57 | 42.82000 | -2.60297 | 36244 ft | 384 kts | 23° |
| 2026-04-14 11:57 | 42.86655 | -2.56743 | 36243 ft | 383 kts | 23° |
| 2026-04-14 11:58 | 42.91307 | -2.53188 | 36233 ft | 383 kts | 23° |
| 2026-04-14 11:58 | 42.95952 | -2.49626 | 36228 ft | 383 kts | 23° |
| 2026-04-14 11:59 | 43.00565 | -2.46084 | 36226 ft | 383 kts | 23° |
| 2026-04-14 11:59 | 43.05213 | -2.42514 | 36225 ft | 384 kts | 23° |
| 2026-04-14 12:00 | 43.09871 | -2.38928 | 36220 ft | 385 kts | 23° |
| 2026-04-14 12:00 | 43.14529 | -2.35332 | 36218 ft | 385 kts | 24° |
| 2026-04-14 12:01 | 43.19191 | -2.31729 | 36227 ft | 385 kts | 24° |
| 2026-04-14 12:01 | 43.23856 | -2.28122 | 36243 ft | 385 kts | 24° |
| 2026-04-14 12:02 | 43.28527 | -2.24504 | 36238 ft | 385 kts | 24° |
| 2026-04-14 12:02 | 43.33188 | -2.20872 | 36240 ft | 385 kts | 24° |
| 2026-04-14 12:03 | 43.37843 | -2.17243 | 36239 ft | 385 kts | 24° |
| 2026-04-14 12:03 | 43.42416 | -2.13674 | 36244 ft | 385 kts | 23° |
| 2026-04-14 12:04 | 43.46750 | -2.10292 | 36227 ft | 389 kts | 24° |
| 2026-04-14 12:04 | 43.51505 | -2.06583 | 36233 ft | 401 kts | 24° |
| 2026-04-14 12:05 | 43.56413 | -2.02746 | 36226 ft | 409 kts | 24° |
| 2026-04-14 12:05 | 43.61367 | -1.98846 | 36226 ft | 410 kts | 24° |
| 2026-04-14 12:06 | 43.66325 | -1.94932 | 36232 ft | 411 kts | 24° |
| 2026-04-14 12:06 | 43.71291 | -1.91013 | 36234 ft | 411 kts | 24° |
| 2026-04-14 12:07 | 43.76251 | -1.87100 | 36258 ft | 410 kts | 24° |
| 2026-04-14 12:07 | 43.81199 | -1.83177 | 36260 ft | 409 kts | 24° |
| 2026-04-14 12:08 | 43.86137 | -1.79253 | 36259 ft | 409 kts | 24° |
| 2026-04-14 12:08 | 43.91079 | -1.75328 | 36256 ft | 409 kts | 24° |
| 2026-04-14 12:09 | 43.96019 | -1.71405 | 36255 ft | 409 kts | 24° |
| 2026-04-14 12:09 | 44.00962 | -1.67467 | 36257 ft | 409 kts | 24° |
| 2026-04-14 12:10 | 44.05866 | -1.63541 | 36249 ft | 410 kts | 24° |
| 2026-04-14 12:10 | 44.10807 | -1.59569 | 36248 ft | 410 kts | 24° |
| 2026-04-14 12:11 | 44.15750 | -1.55600 | 36247 ft | 410 kts | 24° |
| 2026-04-14 12:11 | 44.20702 | -1.51625 | 36264 ft | 410 kts | 24° |
| 2026-04-14 12:12 | 44.25615 | -1.47660 | 36252 ft | 408 kts | 24° |
| 2026-04-14 12:12 | 44.30532 | -1.43685 | 36247 ft | 408 kts | 24° |
| 2026-04-14 12:13 | 44.35447 | -1.39706 | 36241 ft | 408 kts | 24° |
| 2026-04-14 12:13 | 44.40365 | -1.35720 | 36242 ft | 409 kts | 24° |
| 2026-04-14 12:14 | 44.45286 | -1.31732 | 36237 ft | 409 kts | 24° |
| 2026-04-14 12:14 | 44.50215 | -1.27725 | 36234 ft | 410 kts | 24° |
| 2026-04-14 12:15 | 44.55112 | -1.23736 | 36235 ft | 410 kts | 24° |
| 2026-04-14 12:15 | 44.60042 | -1.19702 | 36237 ft | 411 kts | 25° |
| 2026-04-14 12:16 | 44.64974 | -1.15650 | 36233 ft | 411 kts | 24° |
| 2026-04-14 12:16 | 44.69905 | -1.11610 | 36261 ft | 410 kts | 25° |
| 2026-04-14 12:17 | 44.74827 | -1.07566 | 36252 ft | 409 kts | 25° |
| 2026-04-14 12:17 | 44.79737 | -1.03526 | 36250 ft | 409 kts | 25° |
| 2026-04-14 12:18 | 44.84652 | -0.99479 | 36246 ft | 409 kts | 25° |
| 2026-04-14 12:18 | 44.89557 | -0.95428 | 36247 ft | 409 kts | 25° |
| 2026-04-14 12:19 | 44.94462 | -0.91355 | 36244 ft | 409 kts | 25° |
| 2026-04-14 12:19 | 44.99363 | -0.87275 | 36247 ft | 409 kts | 25° |
| 2026-04-14 12:20 | 45.04231 | -0.83221 | 36244 ft | 409 kts | 25° |
| 2026-04-14 12:20 | 45.09140 | -0.79140 | 36244 ft | 410 kts | 25° |
| 2026-04-14 12:21 | 45.14046 | -0.75044 | 36237 ft | 407 kts | 25° |
| 2026-04-14 12:21 | 45.18911 | -0.70971 | 36235 ft | 405 kts | 25° |
| 2026-04-14 12:22 | 45.23770 | -0.66899 | 36227 ft | 406 kts | 25° |
| 2026-04-14 12:22 | 45.28667 | -0.62779 | 36227 ft | 407 kts | 25° |
| 2026-04-14 12:23 | 45.33514 | -0.58708 | 36229 ft | 407 kts | 25° |
| 2026-04-14 12:23 | 45.38393 | -0.54599 | 36237 ft | 408 kts | 25° |
| 2026-04-14 12:24 | 45.43277 | -0.50464 | 36225 ft | 408 kts | 25° |
| 2026-04-14 12:24 | 45.48159 | -0.46327 | 36226 ft | 408 kts | 25° |
| 2026-04-14 12:25 | 45.53044 | -0.42182 | 36230 ft | 409 kts | 25° |
| 2026-04-14 12:25 | 45.57935 | -0.38019 | 36238 ft | 409 kts | 25° |
| 2026-04-14 12:26 | 45.62821 | -0.33850 | 36231 ft | 410 kts | 25° |
| 2026-04-14 12:26 | 45.67714 | -0.29640 | 36234 ft | 411 kts | 26° |
| 2026-04-14 12:27 | 45.72505 | -0.25262 | 36217 ft | 412 kts | 27° |
| 2026-04-14 12:27 | 45.77301 | -0.20775 | 36226 ft | 412 kts | 27° |
| 2026-04-14 12:28 | 45.82110 | -0.16308 | 36217 ft | 412 kts | 27° |
| 2026-04-14 12:28 | 45.86927 | -0.11859 | 36220 ft | 412 kts | 27° |
| 2026-04-14 12:29 | 45.91751 | -0.07410 | 36222 ft | 412 kts | 27° |
| 2026-04-14 12:29 | 45.96580 | -0.02941 | 36220 ft | 413 kts | 27° |
| 2026-04-14 12:30 | 46.01400 | 0.01550 | 36236 ft | 411 kts | 27° |
| 2026-04-14 12:30 | 46.06192 | 0.06017 | 36231 ft | 410 kts | 27° |
| 2026-04-14 12:31 | 46.10983 | 0.10479 | 36230 ft | 410 kts | 27° |
| 2026-04-14 12:31 | 46.15769 | 0.14954 | 36228 ft | 410 kts | 27° |
| 2026-04-14 12:32 | 46.20561 | 0.19439 | 36225 ft | 410 kts | 27° |
| 2026-04-14 12:32 | 46.25346 | 0.23936 | 36223 ft | 411 kts | 27° |
| 2026-04-14 12:33 | 46.30133 | 0.28448 | 36222 ft | 411 kts | 27° |
| 2026-04-14 12:33 | 46.34922 | 0.32969 | 36221 ft | 411 kts | 27° |
| 2026-04-14 12:34 | 46.39712 | 0.37499 | 36223 ft | 411 kts | 27° |
| 2026-04-14 12:34 | 46.44509 | 0.42038 | 36261 ft | 411 kts | 27° |
| 2026-04-14 12:35 | 46.49296 | 0.46575 | 36249 ft | 411 kts | 27° |
| 2026-04-14 12:35 | 46.54076 | 0.51117 | 36243 ft | 410 kts | 26° |
| 2026-04-14 12:36 | 46.59243 | 0.54121 | 36242 ft | 397 kts | 9° |
| 2026-04-14 12:36 | 46.63727 | 0.55575 | 36233 ft | 397 kts | 9° |
| 2026-04-14 12:37 | 46.69533 | 0.57485 | 36225 ft | 398 kts | 9° |
| 2026-04-14 12:37 | 46.74932 | 0.59277 | 36225 ft | 398 kts | 9° |
| 2026-04-14 12:38 | 46.83036 | 0.61954 | 36215 ft | 398 kts | 9° |
| 2026-04-14 12:39 | 46.88407 | 0.63734 | 36220 ft | 398 kts | 9° |
| 2026-04-14 12:39 | 46.93814 | 0.65529 | 36218 ft | 399 kts | 9° |
| 2026-04-14 12:40 | 46.99229 | 0.67331 | 36221 ft | 399 kts | 9° |
| 2026-04-14 12:40 | 47.04650 | 0.69079 | 36219 ft | 398 kts | 5° |
| 2026-04-14 12:41 | 47.10149 | 0.69730 | 36224 ft | 396 kts | 1° |
| 2026-04-14 12:41 | 47.15653 | 0.70305 | 36221 ft | 397 kts | 1° |
| 2026-04-14 12:42 | 47.20229 | 0.70783 | 36224 ft | 397 kts | 1° |
| 2026-04-14 12:42 | 47.25736 | 0.71357 | 36227 ft | 397 kts | 1° |
| 2026-04-14 12:43 | 47.31246 | 0.71933 | 36216 ft | 397 kts | 1° |
| 2026-04-14 12:43 | 47.36752 | 0.72505 | 36215 ft | 397 kts | 1° |
| 2026-04-14 12:44 | 47.42250 | 0.73087 | 36212 ft | 397 kts | 1° |
| 2026-04-14 12:44 | 47.47762 | 0.73677 | 36215 ft | 397 kts | 2° |
| 2026-04-14 12:45 | 47.53170 | 0.75615 | 36215 ft | 404 kts | 13° |
| 2026-04-14 12:45 | 47.55834 | 0.76931 | 36213 ft | 404 kts | 13° |
| 2026-04-14 12:45 | 47.61168 | 0.79563 | 36225 ft | 404 kts | 13° |
| 2026-04-14 12:46 | 47.66512 | 0.82189 | 36215 ft | 405 kts | 13° |
| 2026-04-14 12:46 | 47.71854 | 0.84829 | 36223 ft | 404 kts | 13° |
| 2026-04-14 12:47 | 47.77172 | 0.87463 | 36214 ft | 403 kts | 13° |
| 2026-04-14 12:47 | 47.82491 | 0.90099 | 36214 ft | 403 kts | 13° |
| 2026-04-14 12:48 | 47.87813 | 0.92756 | 36209 ft | 403 kts | 13° |
| 2026-04-14 12:48 | 47.93133 | 0.95444 | 36206 ft | 404 kts | 13° |
| 2026-04-14 12:49 | 47.98456 | 0.98156 | 36202 ft | 404 kts | 14° |
| 2026-04-14 12:49 | 48.03778 | 1.00858 | 36205 ft | 404 kts | 13° |
| 2026-04-14 12:50 | 48.11771 | 1.04928 | 36201 ft | 405 kts | 13° |
| 2026-04-14 12:51 | 48.17098 | 1.07644 | 36199 ft | 405 kts | 13° |
| 2026-04-14 12:51 | 48.22426 | 1.10368 | 36204 ft | 405 kts | 13° |
| 2026-04-14 12:52 | 48.27763 | 1.13088 | 36199 ft | 405 kts | 13° |
| 2026-04-14 12:52 | 48.33100 | 1.15812 | 36199 ft | 405 kts | 13° |
| 2026-04-14 12:53 | 48.38407 | 1.18529 | 36197 ft | 406 kts | 13° |
| 2026-04-14 12:53 | 48.43755 | 1.21266 | 36209 ft | 406 kts | 13° |
| 2026-04-14 12:54 | 48.49106 | 1.24014 | 36201 ft | 406 kts | 13° |
| 2026-04-14 12:54 | 48.54461 | 1.26762 | 36201 ft | 406 kts | 13° |
| 2026-04-14 12:55 | 48.59818 | 1.29489 | 36198 ft | 406 kts | 13° |
| 2026-04-14 12:55 | 48.65186 | 1.32172 | 36201 ft | 406 kts | 12° |
| 2026-04-14 12:56 | 48.70563 | 1.34870 | 36194 ft | 408 kts | 13° |
| 2026-04-14 12:56 | 48.75948 | 1.37598 | 36195 ft | 408 kts | 13° |
| 2026-04-14 12:57 | 48.81343 | 1.40335 | 36200 ft | 409 kts | 13° |
| 2026-04-14 12:57 | 48.86738 | 1.43084 | 36206 ft | 409 kts | 13° |
| 2026-04-14 12:58 | 48.92138 | 1.45842 | 36208 ft | 409 kts | 13° |
| 2026-04-14 12:58 | 48.97386 | 1.49330 | 36206 ft | 422 kts | 27° |
| 2026-04-14 12:58 | 48.99662 | 1.52230 | 36205 ft | 433 kts | 38° |
| 2026-04-14 12:59 | 49.01681 | 1.55669 | 36207 ft | 436 kts | 40° |
| 2026-04-14 12:59 | 49.05704 | 1.62582 | 36210 ft | 436 kts | 40° |
| 2026-04-14 13:00 | 49.09738 | 1.69496 | 36208 ft | 437 kts | 40° |
| 2026-04-14 13:00 | 49.13781 | 1.76444 | 36206 ft | 438 kts | 40° |
| 2026-04-14 13:01 | 49.17831 | 1.83422 | 36214 ft | 439 kts | 40° |
| 2026-04-14 13:01 | 49.21883 | 1.90430 | 36211 ft | 441 kts | 40° |
| 2026-04-14 13:02 | 49.25908 | 1.97432 | 36207 ft | 441 kts | 40° |
| 2026-04-14 13:02 | 49.29963 | 2.04485 | 36212 ft | 441 kts | 40° |
| 2026-04-14 13:03 | 49.34022 | 2.11557 | 36210 ft | 442 kts | 40° |
| 2026-04-14 13:03 | 49.38079 | 2.18649 | 36213 ft | 443 kts | 40° |
| 2026-04-14 13:04 | 49.42135 | 2.25757 | 36232 ft | 443 kts | 41° |
| 2026-04-14 13:04 | 49.46192 | 2.32883 | 36221 ft | 443 kts | 41° |
| 2026-04-14 13:05 | 49.50244 | 2.40027 | 36225 ft | 443 kts | 41° |
| 2026-04-14 13:05 | 49.54320 | 2.47159 | 36207 ft | 441 kts | 38° |
| 2026-04-14 13:06 | 49.59135 | 2.52692 | 36210 ft | 429 kts | 26° |
| 2026-04-14 13:06 | 49.64203 | 2.57575 | 36213 ft | 430 kts | 26° |
| 2026-04-14 13:07 | 49.69276 | 2.62471 | 36215 ft | 431 kts | 26° |
| 2026-04-14 13:07 | 49.74352 | 2.67400 | 36219 ft | 431 kts | 26° |
| 2026-04-14 13:08 | 49.79428 | 2.72350 | 36229 ft | 432 kts | 26° |
| 2026-04-14 13:08 | 49.84521 | 2.77338 | 36211 ft | 434 kts | 26° |
| 2026-04-14 13:09 | 49.89627 | 2.82335 | 36207 ft | 435 kts | 26° |
| 2026-04-14 13:09 | 49.94746 | 2.87349 | 36209 ft | 436 kts | 26° |
| 2026-04-14 13:10 | 49.99878 | 2.92391 | 36203 ft | 437 kts | 27° |
| 2026-04-14 13:10 | 50.05016 | 2.97461 | 36205 ft | 438 kts | 27° |
| 2026-04-14 13:11 | 50.10171 | 3.02566 | 36210 ft | 438 kts | 27° |
| 2026-04-14 13:11 | 50.15300 | 3.07659 | 36215 ft | 439 kts | 27° |
| 2026-04-14 13:12 | 50.20420 | 3.12753 | 36221 ft | 440 kts | 27° |
| 2026-04-14 13:12 | 50.25813 | 3.17245 | 36216 ft | 435 kts | 19° |
| 2026-04-14 13:13 | 50.31304 | 3.21078 | 36215 ft | 435 kts | 19° |
| 2026-04-14 13:13 | 50.36873 | 3.24980 | 36227 ft | 436 kts | 19° |
| 2026-04-14 13:14 | 50.42373 | 3.28898 | 36212 ft | 438 kts | 20° |
| 2026-04-14 13:14 | 50.47853 | 3.33151 | 36202 ft | 440 kts | 22° |
| 2026-04-14 13:15 | 50.53316 | 3.37510 | 36203 ft | 440 kts | 21° |
| 2026-04-14 13:15 | 50.58879 | 3.41494 | 36202 ft | 439 kts | 19° |
| 2026-04-14 13:16 | 50.64493 | 3.45285 | 36203 ft | 440 kts | 19° |
| 2026-04-14 13:16 | 50.70108 | 3.49144 | 36211 ft | 441 kts | 19° |
| 2026-04-14 13:17 | 50.75712 | 3.53090 | 36203 ft | 441 kts | 19° |
| 2026-04-14 13:17 | 50.81323 | 3.57061 | 36218 ft | 442 kts | 19° |
| 2026-04-14 13:18 | 50.86939 | 3.61036 | 36221 ft | 443 kts | 19° |
| 2026-04-14 13:18 | 50.92563 | 3.65027 | 36217 ft | 443 kts | 19° |
| 2026-04-14 13:19 | 50.98199 | 3.69041 | 36213 ft | 444 kts | 19° |
| 2026-04-14 13:19 | 51.03832 | 3.73050 | 36220 ft | 444 kts | 19° |
| 2026-04-14 13:20 | 51.09473 | 3.77077 | 36220 ft | 444 kts | 19° |
| 2026-04-14 13:20 | 51.15113 | 3.81124 | 36229 ft | 445 kts | 20° |
| 2026-04-14 13:21 | 51.20757 | 3.85177 | 36225 ft | 445 kts | 20° |
| 2026-04-14 13:21 | 51.26407 | 3.89243 | 36216 ft | 446 kts | 20° |
| 2026-04-14 13:22 | 51.32063 | 3.93344 | 36228 ft | 446 kts | 20° |
| 2026-04-14 13:22 | 51.37720 | 3.97450 | 36221 ft | 447 kts | 20° |
| 2026-04-14 13:23 | 51.43376 | 4.01564 | 36217 ft | 447 kts | 20° |
| 2026-04-14 13:23 | 51.48978 | 4.05914 | 36204 ft | 451 kts | 28° |
| 2026-04-14 13:24 | 51.54230 | 4.11485 | 36222 ft | 453 kts | 28° |
| 2026-04-14 13:24 | 51.62110 | 4.19878 | 36216 ft | 453 kts | 28° |
| 2026-04-14 13:25 | 51.67370 | 4.25498 | 36214 ft | 454 kts | 28° |
| 2026-04-14 13:26 | 51.77883 | 4.36793 | 36232 ft | 455 kts | 29° |
| 2026-04-14 13:26 | 51.83144 | 4.42481 | 36236 ft | 455 kts | 29° |
| 2026-04-14 13:27 | 51.88372 | 4.48136 | 36238 ft | 455 kts | 29° |
| 2026-04-14 13:27 | 51.93636 | 4.53850 | 36239 ft | 456 kts | 29° |
| 2026-04-14 13:28 | 51.98905 | 4.59581 | 36245 ft | 456 kts | 29° |
| 2026-04-14 13:28 | 52.04171 | 4.65334 | 36216 ft | 457 kts | 29° |
| 2026-04-14 13:29 | 52.08552 | 4.70134 | 36229 ft | 457 kts | 29° |
| 2026-04-14 13:29 | 52.13853 | 4.75954 | 36231 ft | 457 kts | 29° |
| 2026-04-14 13:30 | 52.19087 | 4.81719 | 36249 ft | 457 kts | 29° |
| 2026-04-14 13:30 | 52.24397 | 4.87579 | 36243 ft | 458 kts | 29° |
| 2026-04-14 13:31 | 52.29640 | 4.93371 | 36244 ft | 458 kts | 29° |
| 2026-04-14 13:31 | 52.34958 | 4.99270 | 36239 ft | 459 kts | 29° |
| 2026-04-14 13:32 | 52.40235 | 5.05159 | 36226 ft | 459 kts | 29° |
| 2026-04-14 13:32 | 52.45512 | 5.11058 | 36216 ft | 459 kts | 29° |
| 2026-04-14 13:33 | 52.50759 | 5.16936 | 36213 ft | 460 kts | 29° |
| 2026-04-14 13:33 | 52.56043 | 5.22870 | 36211 ft | 460 kts | 29° |
| 2026-04-14 13:34 | 52.63975 | 5.31808 | 36211 ft | 461 kts | 30° |
| 2026-04-14 13:35 | 52.69259 | 5.37796 | 36226 ft | 461 kts | 30° |
| 2026-04-14 13:35 | 52.74547 | 5.43793 | 36215 ft | 462 kts | 30° |
| 2026-04-14 13:36 | 52.79839 | 5.49819 | 36213 ft | 462 kts | 30° |
| 2026-04-14 13:36 | 52.85131 | 5.55861 | 36216 ft | 462 kts | 30° |
| 2026-04-14 13:37 | 52.90426 | 5.61925 | 36218 ft | 463 kts | 30° |
| 2026-04-14 13:37 | 52.95728 | 5.68025 | 36208 ft | 464 kts | 30° |
| 2026-04-14 13:38 | 53.01036 | 5.74150 | 36219 ft | 465 kts | 30° |
| 2026-04-14 13:38 | 53.06350 | 5.80294 | 36226 ft | 465 kts | 30° |
| 2026-04-14 13:39 | 53.11665 | 5.86449 | 36253 ft | 466 kts | 30° |
| 2026-04-14 13:39 | 53.16985 | 5.92641 | 36239 ft | 467 kts | 30° |
| 2026-04-14 13:40 | 53.22315 | 5.98870 | 36235 ft | 468 kts | 30° |
| 2026-04-14 13:40 | 53.27648 | 6.05113 | 36230 ft | 468 kts | 30° |
| 2026-04-14 13:41 | 53.32981 | 6.11371 | 36224 ft | 468 kts | 30° |
| 2026-04-14 13:41 | 53.38310 | 6.17658 | 36221 ft | 469 kts | 30° |
| 2026-04-14 13:42 | 53.43635 | 6.23955 | 36219 ft | 469 kts | 31° |
| 2026-04-14 13:42 | 53.48936 | 6.30219 | 36220 ft | 469 kts | 31° |
| 2026-04-14 13:43 | 53.54302 | 6.36593 | 36220 ft | 469 kts | 31° |
| 2026-04-14 13:43 | 53.59590 | 6.42909 | 36238 ft | 470 kts | 31° |
| 2026-04-14 13:44 | 53.64926 | 6.49283 | 36229 ft | 470 kts | 31° |
| 2026-04-14 13:44 | 53.70261 | 6.55676 | 36229 ft | 471 kts | 31° |
| 2026-04-14 13:45 | 53.75592 | 6.62102 | 36226 ft | 471 kts | 31° |
| 2026-04-14 13:45 | 53.80920 | 6.68556 | 36239 ft | 471 kts | 31° |
| 2026-04-14 13:46 | 53.86257 | 6.75021 | 36237 ft | 472 kts | 31° |
| 2026-04-14 13:46 | 53.91600 | 6.81516 | 36230 ft | 473 kts | 31° |
| 2026-04-14 13:47 | 53.96942 | 6.88046 | 36239 ft | 474 kts | 32° |
| 2026-04-14 13:47 | 54.02292 | 6.94593 | 36233 ft | 474 kts | 31° |
| 2026-04-14 13:48 | 54.07648 | 7.01153 | 36246 ft | 475 kts | 32° |
| 2026-04-14 13:48 | 54.13007 | 7.07751 | 36226 ft | 476 kts | 32° |
| 2026-04-14 13:49 | 54.18369 | 7.14373 | 36220 ft | 476 kts | 32° |
| 2026-04-14 13:49 | 54.23727 | 7.21024 | 36220 ft | 476 kts | 32° |
| 2026-04-14 13:50 | 54.29086 | 7.27687 | 36240 ft | 477 kts | 32° |
| 2026-04-14 13:50 | 54.34454 | 7.34383 | 36218 ft | 478 kts | 32° |
| 2026-04-14 13:51 | 54.39824 | 7.41105 | 36213 ft | 478 kts | 32° |
| 2026-04-14 13:51 | 54.45203 | 7.47859 | 36213 ft | 479 kts | 32° |
| 2026-04-14 13:52 | 54.50581 | 7.54642 | 36214 ft | 480 kts | 32° |
| 2026-04-14 13:52 | 54.55981 | 7.61462 | 36211 ft | 482 kts | 32° |
| 2026-04-14 13:53 | 54.61393 | 7.68323 | 36202 ft | 483 kts | 33° |
| 2026-04-14 13:53 | 54.66776 | 7.75167 | 36204 ft | 484 kts | 33° |
| 2026-04-14 13:54 | 54.72194 | 7.82102 | 36207 ft | 485 kts | 33° |
| 2026-04-14 13:54 | 54.77616 | 7.89072 | 36236 ft | 486 kts | 33° |
| 2026-04-14 13:55 | 54.83055 | 7.96055 | 36224 ft | 487 kts | 33° |
| 2026-04-14 13:55 | 54.88501 | 8.03070 | 36214 ft | 488 kts | 33° |
| 2026-04-14 13:56 | 54.93949 | 8.10123 | 36211 ft | 488 kts | 33° |
| 2026-04-14 13:56 | 54.99386 | 8.17203 | 36238 ft | 488 kts | 33° |
| 2026-04-14 13:57 | 55.04830 | 8.24300 | 36216 ft | 489 kts | 34° |
| 2026-04-14 13:57 | 55.10275 | 8.31431 | 36200 ft | 490 kts | 34° |
| 2026-04-14 13:58 | 55.15732 | 8.38586 | 36196 ft | 491 kts | 34° |
| 2026-04-14 13:58 | 55.21190 | 8.45779 | 36190 ft | 492 kts | 34° |
| 2026-04-14 13:59 | 55.26649 | 8.53007 | 36204 ft | 492 kts | 34° |
| 2026-04-14 13:59 | 55.32113 | 8.60248 | 36188 ft | 493 kts | 34° |
| 2026-04-14 14:00 | 55.37581 | 8.67519 | 36191 ft | 493 kts | 34° |
| 2026-04-14 14:00 | 55.43008 | 8.74769 | 36188 ft | 493 kts | 34° |
| 2026-04-14 14:01 | 55.48460 | 8.82087 | 36204 ft | 493 kts | 35° |
| 2026-04-14 14:01 | 55.53919 | 8.89432 | 36191 ft | 493 kts | 35° |
| 2026-04-14 14:02 | 55.59367 | 8.96796 | 36175 ft | 494 kts | 36° |
| 2026-04-14 14:02 | 55.64826 | 9.04199 | 36172 ft | 495 kts | 36° |
| 2026-04-14 14:03 | 55.70287 | 9.11632 | 36178 ft | 495 kts | 36° |
| 2026-04-14 14:03 | 55.75751 | 9.19102 | 36184 ft | 496 kts | 36° |
| 2026-04-14 14:04 | 55.81216 | 9.26583 | 36187 ft | 496 kts | 36° |
| 2026-04-14 14:04 | 55.86677 | 9.34091 | 36186 ft | 496 kts | 36° |
| 2026-04-14 14:05 | 55.92127 | 9.41623 | 36169 ft | 496 kts | 36° |
| 2026-04-14 14:05 | 55.97576 | 9.49181 | 36182 ft | 496 kts | 36° |
| 2026-04-14 14:06 | 56.03025 | 9.56753 | 36174 ft | 496 kts | 36° |
| 2026-04-14 14:06 | 56.08470 | 9.64347 | 36159 ft | 496 kts | 37° |
| 2026-04-14 14:07 | 56.13901 | 9.71963 | 36158 ft | 496 kts | 37° |
| 2026-04-14 14:07 | 56.19297 | 9.79559 | 36156 ft | 497 kts | 37° |
| 2026-04-14 14:08 | 56.24776 | 9.87280 | 36149 ft | 497 kts | 37° |